11 a 19/2 - Nuevo ingreso de aire tropical C y N

Avatar de Usuario
pupy
Mensajes: 2342
Registrado: Mar Mar 02, 2010 7:15 pm
Ubicación: Cordoba capital

Re: 11 a 19/2 - Nuevo ingreso de aire tropical C y N

Mensaje por pupy » Lun Feb 17, 2020 8:35 pm

Se escuchan fuertes truenos al S SO (para el lado de las sierras )!!!!!! sopla viento del cuadrante sur !!!!!

Avatar de Usuario
Diecha
Mensajes: 10397
Registrado: Jue Ago 25, 2011 9:31 pm
Ubicación: Lomas de Zamora

Re: 11 a 19/2 - Nuevo ingreso de aire tropical C y N

Mensaje por Diecha » Lun Feb 17, 2020 8:38 pm

- Paraná 20:20 hs: SAAP 172320Z 16024G36KT 9999 SCT025 FEW050CB BKN100 27/22 Q1004 (ráfaga de 67 Km/h)
- Sauce Viejo 20:20 hs: SAAV 172320Z 21021KT 2000 +RA SCT028 OVC040 25/20 Q1003

Imagen

Avatar de Usuario
Ezequiel1995
Mensajes: 968
Registrado: Mar Nov 12, 2019 4:50 pm
Ubicación: Merlo, Buenos Aires
Contactar:

Re: 11 a 19/2 - Nuevo ingreso de aire tropical C y N

Mensaje por Ezequiel1995 » Lun Feb 17, 2020 8:42 pm

Salí a comprar y me empape. Ahora no llueve, pero, según el radar, en un rato se larga

Avatar de Usuario
Diecha
Mensajes: 10397
Registrado: Jue Ago 25, 2011 9:31 pm
Ubicación: Lomas de Zamora

Re: 11 a 19/2 - Nuevo ingreso de aire tropical C y N

Mensaje por Diecha » Lun Feb 17, 2020 8:43 pm

- Córdoba 20 hs: SACO 172300Z 20013KT 9000 -TSRA BKN015 FEW040CB BKN050 21/20 Q1006 NOSIG RMK CB OBS TO W E
- Río Cuarto 20 hs: SAOC 172300Z 20010KT 9999 FEW025 SCT100 BKN200 20/19 Q1007

Imagen

Avatar de Usuario
Diecha
Mensajes: 10397
Registrado: Jue Ago 25, 2011 9:31 pm
Ubicación: Lomas de Zamora

Re: 11 a 19/2 - Nuevo ingreso de aire tropical C y N

Mensaje por Diecha » Lun Feb 17, 2020 8:48 pm


Danywilde
Mensajes: 2384
Registrado: Mar Ene 24, 2012 1:41 pm
Ubicación: Wilde, Buenos Aires

Re: 11 a 19/2 - Nuevo ingreso de aire tropical C y N

Mensaje por Danywilde » Lun Feb 17, 2020 8:50 pm

Llovizna de a ratos con goterones, en Wilde. La brisa viró al NE.

Cordobés82
Mensajes: 163
Registrado: Vie Abr 22, 2016 2:13 am
Ubicación: Córdoba

Re: 11 a 19/2 - Nuevo ingreso de aire tropical C y N

Mensaje por Cordobés82 » Lun Feb 17, 2020 8:53 pm

De nuevo actividad elétrica intensa en Córdoba. Se acaba de largar a llover con cierta intensidad, hará menos de 5 minutos.

Avatar de Usuario
Diecha
Mensajes: 10397
Registrado: Jue Ago 25, 2011 9:31 pm
Ubicación: Lomas de Zamora

Re: 11 a 19/2 - Nuevo ingreso de aire tropical C y N

Mensaje por Diecha » Lun Feb 17, 2020 8:54 pm


Avatar de Usuario
daros22
Mensajes: 3376
Registrado: Mié Abr 20, 2011 5:18 am
Ubicación: Rosario

Re: 11 a 19/2 - Nuevo ingreso de aire tropical C y N

Mensaje por daros22 » Lun Feb 17, 2020 9:05 pm

Vuelve a llover fuerte esta vez con mas act. electrica.

Avatar de Usuario
Diecha
Mensajes: 10397
Registrado: Jue Ago 25, 2011 9:31 pm
Ubicación: Lomas de Zamora

Re: 11 a 19/2 - Nuevo ingreso de aire tropical C y N

Mensaje por Diecha » Lun Feb 17, 2020 9:12 pm

San Lorenzo, Córdoba:
Imagen
www.instagram.com/p/B8sAVf-hoWi/

Responder